sensor_id;sensor_type;location;lat;lon;timestamp;P1;durP1;ratioP1;P2;durP2;ratioP2
30247;SDS011;17063;50.892;4.702;2022-12-29T00:00:06;1.23;;;1.13;;
30247;SDS011;17063;50.892;4.702;2022-12-29T00:02:40;1.40;;;0.77;;
30247;SDS011;17063;50.892;4.702;2022-12-29T00:05:07;1.67;;;0.90;;
30247;SDS011;17063;50.892;4.702;2022-12-29T00:07:35;3.13;;;1.00;;
30247;SDS011;17063;50.892;4.702;2022-12-29T00:10:02;1.20;;;0.70;;
30247;SDS011;17063;50.892;4.702;2022-12-29T00:12:29;4.47;;;1.20;;
30247;SDS011;17063;50.892;4.702;2022-12-29T00:15:16;1.30;;;0.70;;
30247;SDS011;17063;50.892;4.702;2022-12-29T00:18:01;1.43;;;0.80;;
30247;SDS011;17063;50.892;4.702;2022-12-29T00:20:28;1.20;;;0.80;;
30247;SDS011;17063;50.892;4.702;2022-12-29T00:23:14;2.93;;;0.90;;
30247;SDS011;17063;50.892;4.702;2022-12-29T00:26:02;0.80;;;0.80;;
30247;SDS011;17063;50.892;4.702;2022-12-29T00:28:49;1.23;;;0.90;;
30247;SDS011;17063;50.892;4.702;2022-12-29T00:31:35;1.67;;;0.90;;
30247;SDS011;17063;50.892;4.702;2022-12-29T00:34:21;1.80;;;0.90;;
30247;SDS011;17063;50.892;4.702;2022-12-29T00:37:06;0.77;;;0.57;;
30247;SDS011;17063;50.892;4.702;2022-12-29T00:39:33;1.97;;;0.70;;
30247;SDS011;17063;50.892;4.702;2022-12-29T00:42:19;0.83;;;0.70;;
30247;SDS011;17063;50.892;4.702;2022-12-29T00:45:04;2.10;;;0.90;;
30247;SDS011;17063;50.892;4.702;2022-12-29T00:47:32;2.07;;;0.40;;
30247;SDS011;17063;50.892;4.702;2022-12-29T00:49:59;1.93;;;0.60;;
30247;SDS011;17063;50.892;4.702;2022-12-29T00:52:26;1.23;;;0.80;;
30247;SDS011;17063;50.892;4.702;2022-12-29T00:54:53;0.50;;;0.50;;
30247;SDS011;17063;50.892;4.702;2022-12-29T00:57:20;1.20;;;0.60;;
30247;SDS011;17063;50.892;4.702;2022-12-29T00:59:47;1.13;;;0.77;;
30247;SDS011;17063;50.892;4.702;2022-12-29T01:02:14;2.33;;;0.77;;
30247;SDS011;17063;50.892;4.702;2022-12-29T01:04:42;4.67;;;0.80;;
30247;SDS011;17063;50.892;4.702;2022-12-29T01:07:09;2.13;;;0.90;;
30247;SDS011;17063;50.892;4.702;2022-12-29T01:09:36;4.63;;;1.00;;
30247;SDS011;17063;50.892;4.702;2022-12-29T01:12:22;4.03;;;0.77;;
30247;SDS011;17063;50.892;4.702;2022-12-29T01:15:11;1.87;;;0.87;;
30247;SDS011;17063;50.892;4.702;2022-12-29T01:17:40;2.20;;;0.80;;
30247;SDS011;17063;50.892;4.702;2022-12-29T01:20:07;3.20;;;1.00;;
30247;SDS011;17063;50.892;4.702;2022-12-29T01:22:34;2.43;;;0.80;;
30247;SDS011;17063;50.892;4.702;2022-12-29T01:25:01;4.07;;;0.90;;
30247;SDS011;17063;50.892;4.702;2022-12-29T01:27:29;1.50;;;0.60;;
30247;SDS011;17063;50.892;4.702;2022-12-29T01:29:56;0.60;;;0.60;;
30247;SDS011;17063;50.892;4.702;2022-12-29T01:32:23;1.07;;;0.87;;
30247;SDS011;17063;50.892;4.702;2022-12-29T01:34:50;4.33;;;1.10;;
30247;SDS011;17063;50.892;4.702;2022-12-29T01:37:17;1.13;;;0.80;;
30247;SDS011;17063;50.892;4.702;2022-12-29T01:39:44;4.03;;;1.10;;
30247;SDS011;17063;50.892;4.702;2022-12-29T01:42:17;2.37;;;1.00;;
30247;SDS011;17063;50.892;4.702;2022-12-29T01:47:39;2.10;;;1.10;;
30247;SDS011;17063;50.892;4.702;2022-12-29T01:50:11;1.60;;;1.00;;
30247;SDS011;17063;50.892;4.702;2022-12-29T01:53:09;3.10;;;1.10;;
30247;SDS011;17063;50.892;4.702;2022-12-29T01:55:42;2.13;;;1.03;;
30247;SDS011;17063;50.892;4.702;2022-12-29T01:58:11;3.30;;;1.87;;
30247;SDS011;17063;50.892;4.702;2022-12-29T02:00:39;2.87;;;1.27;;
30247;SDS011;17063;50.892;4.702;2022-12-29T02:03:07;6.33;;;0.97;;
30247;SDS011;17063;50.892;4.702;2022-12-29T02:08:11;1.60;;;1.03;;
30247;SDS011;17063;50.892;4.702;2022-12-29T02:10:39;4.47;;;0.80;;
30247;SDS011;17063;50.892;4.702;2022-12-29T02:13:07;1.33;;;0.80;;
30247;SDS011;17063;50.892;4.702;2022-12-29T02:18:37;1.73;;;0.90;;
30247;SDS011;17063;50.892;4.702;2022-12-29T02:21:24;2.77;;;0.73;;
30247;SDS011;17063;50.892;4.702;2022-12-29T02:31:43;1.00;;;0.60;;
30247;SDS011;17063;50.892;4.702;2022-12-29T02:36:58;0.77;;;0.50;;
30247;SDS011;17063;50.892;4.702;2022-12-29T02:42:13;1.87;;;0.50;;
30247;SDS011;17063;50.892;4.702;2022-12-29T02:47:33;1.63;;;0.80;;
30247;SDS011;17063;50.892;4.702;2022-12-29T02:52:36;1.77;;;0.60;;
30247;SDS011;17063;50.892;4.702;2022-12-29T02:55:16;0.53;;;0.40;;
30247;SDS011;17063;50.892;4.702;2022-12-29T02:57:43;1.70;;;0.60;;
30247;SDS011;17063;50.892;4.702;2022-12-29T03:00:12;1.97;;;0.53;;
30247;SDS011;17063;50.892;4.702;2022-12-29T03:08:23;2.33;;;0.70;;
30247;SDS011;17063;50.892;4.702;2022-12-29T03:11:00;2.33;;;0.60;;
30247;SDS011;17063;50.892;4.702;2022-12-29T03:16:42;3.67;;;0.40;;
30247;SDS011;17063;50.892;4.702;2022-12-29T03:19:46;0.87;;;0.37;;
30247;SDS011;17063;50.892;4.702;2022-12-29T03:22:08;3.50;;;0.50;;
30247;SDS011;17063;50.892;4.702;2022-12-29T03:25:16;2.93;;;0.50;;
30247;SDS011;17063;50.892;4.702;2022-12-29T03:27:45;1.00;;;0.40;;
30247;SDS011;17063;50.892;4.702;2022-12-29T03:30:17;1.17;;;0.40;;
30247;SDS011;17063;50.892;4.702;2022-12-29T03:32:50;0.97;;;0.40;;
30247;SDS011;17063;50.892;4.702;2022-12-29T03:35:21;0.20;;;0.20;;
30247;SDS011;17063;50.892;4.702;2022-12-29T03:37:55;3.07;;;0.93;;
30247;SDS011;17063;50.892;4.702;2022-12-29T03:40:48;1.17;;;0.30;;
30247;SDS011;17063;50.892;4.702;2022-12-29T03:43:18;0.70;;;0.50;;
30247;SDS011;17063;50.892;4.702;2022-12-29T03:45:46;0.97;;;0.50;;
30247;SDS011;17063;50.892;4.702;2022-12-29T03:48:13;1.97;;;0.40;;
30247;SDS011;17063;50.892;4.702;2022-12-29T03:50:40;0.57;;;0.40;;
30247;SDS011;17063;50.892;4.702;2022-12-29T03:53:08;1.73;;;0.73;;
30247;SDS011;17063;50.892;4.702;2022-12-29T03:55:37;2.30;;;0.67;;
30247;SDS011;17063;50.892;4.702;2022-12-29T03:58:04;3.17;;;0.70;;
30247;SDS011;17063;50.892;4.702;2022-12-29T04:01:00;4.30;;;0.53;;
30247;SDS011;17063;50.892;4.702;2022-12-29T04:03:30;5.97;;;0.70;;
30247;SDS011;17063;50.892;4.702;2022-12-29T04:05:57;3.77;;;0.73;;
30247;SDS011;17063;50.892;4.702;2022-12-29T04:08:26;4.07;;;0.80;;
30247;SDS011;17063;50.892;4.702;2022-12-29T04:10:53;3.03;;;0.80;;
30247;SDS011;17063;50.892;4.702;2022-12-29T04:13:21;6.33;;;1.07;;
30247;SDS011;17063;50.892;4.702;2022-12-29T04:15:51;3.20;;;0.67;;
30247;SDS011;17063;50.892;4.702;2022-12-29T04:18:18;4.90;;;1.57;;
30247;SDS011;17063;50.892;4.702;2022-12-29T04:20:45;3.60;;;0.83;;
30247;SDS011;17063;50.892;4.702;2022-12-29T04:23:28;3.73;;;1.00;;
30247;SDS011;17063;50.892;4.702;2022-12-29T04:25:59;4.93;;;1.10;;
30247;SDS011;17063;50.892;4.702;2022-12-29T04:28:29;2.93;;;0.77;;
30247;SDS011;17063;50.892;4.702;2022-12-29T04:30:56;2.47;;;0.70;;
30247;SDS011;17063;50.892;4.702;2022-12-29T04:33:27;5.50;;;0.93;;
30247;SDS011;17063;50.892;4.702;2022-12-29T04:35:54;5.97;;;1.03;;
30247;SDS011;17063;50.892;4.702;2022-12-29T04:38:22;2.20;;;0.63;;
30247;SDS011;17063;50.892;4.702;2022-12-29T04:40:50;5.43;;;0.83;;
30247;SDS011;17063;50.892;4.702;2022-12-29T04:43:21;6.53;;;1.00;;
30247;SDS011;17063;50.892;4.702;2022-12-29T04:46:13;6.53;;;1.00;;
30247;SDS011;17063;50.892;4.702;2022-12-29T04:49:03;2.03;;;0.67;;
30247;SDS011;17063;50.892;4.702;2022-12-29T04:51:53;3.97;;;0.70;;
30247;SDS011;17063;50.892;4.702;2022-12-29T04:54:21;1.83;;;0.70;;
30247;SDS011;17063;50.892;4.702;2022-12-29T04:56:54;7.80;;;0.90;;
30247;SDS011;17063;50.892;4.702;2022-12-29T04:59:23;4.43;;;0.70;;
30247;SDS011;17063;50.892;4.702;2022-12-29T05:01:53;4.03;;;1.10;;
30247;SDS011;17063;50.892;4.702;2022-12-29T05:04:21;4.37;;;0.63;;
30247;SDS011;17063;50.892;4.702;2022-12-29T05:06:48;3.03;;;0.97;;
30247;SDS011;17063;50.892;4.702;2022-12-29T05:09:16;2.97;;;0.90;;
30247;SDS011;17063;50.892;4.702;2022-12-29T05:11:44;3.70;;;0.90;;
30247;SDS011;17063;50.892;4.702;2022-12-29T05:14:11;6.40;;;1.30;;
30247;SDS011;17063;50.892;4.702;2022-12-29T05:16:38;5.27;;;0.80;;
30247;SDS011;17063;50.892;4.702;2022-12-29T05:19:05;7.03;;;1.00;;
30247;SDS011;17063;50.892;4.702;2022-12-29T05:21:33;6.30;;;1.23;;
30247;SDS011;17063;50.892;4.702;2022-12-29T05:24:00;6.93;;;1.07;;
30247;SDS011;17063;50.892;4.702;2022-12-29T05:26:27;5.70;;;1.07;;
30247;SDS011;17063;50.892;4.702;2022-12-29T05:29:17;3.57;;;0.80;;
30247;SDS011;17063;50.892;4.702;2022-12-29T05:31:44;6.13;;;1.47;;
30247;SDS011;17063;50.892;4.702;2022-12-29T05:34:11;5.50;;;1.13;;
30247;SDS011;17063;50.892;4.702;2022-12-29T05:36:39;7.47;;;0.93;;
30247;SDS011;17063;50.892;4.702;2022-12-29T05:39:08;5.00;;;1.20;;
30247;SDS011;17063;50.892;4.702;2022-12-29T05:41:36;4.03;;;1.17;;
30247;SDS011;17063;50.892;4.702;2022-12-29T05:44:23;8.43;;;1.30;;
30247;SDS011;17063;50.892;4.702;2022-12-29T05:47:10;8.57;;;1.20;;
30247;SDS011;17063;50.892;4.702;2022-12-29T05:50:09;6.23;;;1.40;;
30247;SDS011;17063;50.892;4.702;2022-12-29T05:52:55;5.87;;;0.57;;
30247;SDS011;17063;50.892;4.702;2022-12-29T05:55:23;4.83;;;0.97;;
30247;SDS011;17063;50.892;4.702;2022-12-29T05:57:52;6.97;;;1.17;;
30247;SDS011;17063;50.892;4.702;2022-12-29T06:00:19;4.63;;;1.10;;
30247;SDS011;17063;50.892;4.702;2022-12-29T06:02:46;8.17;;;1.97;;
30247;SDS011;17063;50.892;4.702;2022-12-29T06:05:15;5.87;;;1.50;;
30247;SDS011;17063;50.892;4.702;2022-12-29T06:07:43;5.43;;;1.37;;
30247;SDS011;17063;50.892;4.702;2022-12-29T06:10:13;8.87;;;1.13;;
30247;SDS011;17063;50.892;4.702;2022-12-29T06:12:44;9.93;;;1.30;;
30247;SDS011;17063;50.892;4.702;2022-12-29T06:15:13;3.33;;;0.87;;
30247;SDS011;17063;50.892;4.702;2022-12-29T06:17:41;5.27;;;1.10;;
30247;SDS011;17063;50.892;4.702;2022-12-29T06:20:08;4.27;;;1.07;;
30247;SDS011;17063;50.892;4.702;2022-12-29T06:22:36;7.03;;;1.50;;
30247;SDS011;17063;50.892;4.702;2022-12-29T06:25:03;8.67;;;1.23;;
30247;SDS011;17063;50.892;4.702;2022-12-29T06:27:33;7.77;;;1.20;;
30247;SDS011;17063;50.892;4.702;2022-12-29T06:30:00;5.13;;;1.20;;
30247;SDS011;17063;50.892;4.702;2022-12-29T06:32:33;6.20;;;1.30;;
30247;SDS011;17063;50.892;4.702;2022-12-29T06:35:03;9.43;;;1.23;;
30247;SDS011;17063;50.892;4.702;2022-12-29T06:37:36;7.20;;;1.53;;
30247;SDS011;17063;50.892;4.702;2022-12-29T06:40:04;10.27;;;1.27;;
30247;SDS011;17063;50.892;4.702;2022-12-29T06:42:44;9.27;;;1.37;;
30247;SDS011;17063;50.892;4.702;2022-12-29T06:45:31;8.43;;;1.57;;
30247;SDS011;17063;50.892;4.702;2022-12-29T06:47:59;6.83;;;1.03;;
30247;SDS011;17063;50.892;4.702;2022-12-29T06:50:26;7.50;;;1.50;;
30247;SDS011;17063;50.892;4.702;2022-12-29T06:52:53;6.27;;;1.03;;
30247;SDS011;17063;50.892;4.702;2022-12-29T06:55:19;6.83;;;1.30;;
30247;SDS011;17063;50.892;4.702;2022-12-29T06:57:47;5.13;;;1.10;;
30247;SDS011;17063;50.892;4.702;2022-12-29T07:00:14;10.33;;;1.50;;
30247;SDS011;17063;50.892;4.702;2022-12-29T07:02:47;8.43;;;1.40;;
30247;SDS011;17063;50.892;4.702;2022-12-29T07:05:14;4.80;;;1.17;;
30247;SDS011;17063;50.892;4.702;2022-12-29T07:07:42;5.57;;;1.37;;
30247;SDS011;17063;50.892;4.702;2022-12-29T07:10:09;5.50;;;1.70;;
30247;SDS011;17063;50.892;4.702;2022-12-29T07:12:36;12.87;;;1.60;;
30247;SDS011;17063;50.892;4.702;2022-12-29T07:15:03;11.77;;;1.47;;
30247;SDS011;17063;50.892;4.702;2022-12-29T07:17:31;11.33;;;1.40;;
30247;SDS011;17063;50.892;4.702;2022-12-29T07:19:58;5.63;;;1.07;;
30247;SDS011;17063;50.892;4.702;2022-12-29T07:22:25;6.57;;;1.37;;
30247;SDS011;17063;50.892;4.702;2022-12-29T07:24:52;7.53;;;1.37;;
30247;SDS011;17063;50.892;4.702;2022-12-29T07:27:20;4.80;;;1.00;;
30247;SDS011;17063;50.892;4.702;2022-12-29T07:29:47;7.00;;;1.17;;
30247;SDS011;17063;50.892;4.702;2022-12-29T07:32:14;7.20;;;1.03;;
30247;SDS011;17063;50.892;4.702;2022-12-29T07:34:42;7.33;;;1.10;;
30247;SDS011;17063;50.892;4.702;2022-12-29T07:37:11;5.57;;;1.60;;
30247;SDS011;17063;50.892;4.702;2022-12-29T07:39:40;6.20;;;1.30;;
30247;SDS011;17063;50.892;4.702;2022-12-29T07:42:08;7.13;;;1.37;;
30247;SDS011;17063;50.892;4.702;2022-12-29T07:44:43;9.13;;;2.10;;
30247;SDS011;17063;50.892;4.702;2022-12-29T07:47:29;11.10;;;1.60;;
30247;SDS011;17063;50.892;4.702;2022-12-29T07:49:56;8.50;;;1.43;;
30247;SDS011;17063;50.892;4.702;2022-12-29T07:52:23;5.87;;;1.10;;
30247;SDS011;17063;50.892;4.702;2022-12-29T07:54:50;8.30;;;1.53;;
30247;SDS011;17063;50.892;4.702;2022-12-29T07:57:17;5.80;;;1.00;;
30247;SDS011;17063;50.892;4.702;2022-12-29T07:59:44;18.47;;;2.20;;
30247;SDS011;17063;50.892;4.702;2022-12-29T08:02:11;7.30;;;1.70;;
30247;SDS011;17063;50.892;4.702;2022-12-29T08:04:38;8.77;;;1.43;;
30247;SDS011;17063;50.892;4.702;2022-12-29T08:07:05;9.90;;;2.00;;
30247;SDS011;17063;50.892;4.702;2022-12-29T08:09:32;8.30;;;1.33;;
30247;SDS011;17063;50.892;4.702;2022-12-29T08:11:59;8.27;;;1.47;;
30247;SDS011;17063;50.892;4.702;2022-12-29T08:14:26;8.57;;;1.70;;
30247;SDS011;17063;50.892;4.702;2022-12-29T08:16:52;6.97;;;1.40;;
30247;SDS011;17063;50.892;4.702;2022-12-29T08:19:20;7.13;;;1.47;;
30247;SDS011;17063;50.892;4.702;2022-12-29T08:21:49;5.57;;;1.40;;
30247;SDS011;17063;50.892;4.702;2022-12-29T08:24:16;6.77;;;1.60;;
30247;SDS011;17063;50.892;4.702;2022-12-29T08:26:43;7.47;;;1.40;;
30247;SDS011;17063;50.892;4.702;2022-12-29T08:29:10;10.23;;;1.40;;
30247;SDS011;17063;50.892;4.702;2022-12-29T08:31:37;5.47;;;1.43;;
30247;SDS011;17063;50.892;4.702;2022-12-29T08:34:04;10.47;;;1.93;;
30247;SDS011;17063;50.892;4.702;2022-12-29T08:36:32;9.93;;;1.67;;
30247;SDS011;17063;50.892;4.702;2022-12-29T08:38:59;10.10;;;1.40;;
30247;SDS011;17063;50.892;4.702;2022-12-29T08:41:25;6.37;;;1.63;;
30247;SDS011;17063;50.892;4.702;2022-12-29T08:43:52;10.13;;;1.57;;
30247;SDS011;17063;50.892;4.702;2022-12-29T08:46:19;7.03;;;1.37;;
30247;SDS011;17063;50.892;4.702;2022-12-29T08:48:46;7.07;;;1.40;;
30247;SDS011;17063;50.892;4.702;2022-12-29T08:51:13;33.00;;;4.50;;
30247;SDS011;17063;50.892;4.702;2022-12-29T08:53:42;5.10;;;1.33;;
30247;SDS011;17063;50.892;4.702;2022-12-29T08:56:09;9.53;;;1.70;;
30247;SDS011;17063;50.892;4.702;2022-12-29T08:58:45;6.90;;;1.30;;
30247;SDS011;17063;50.892;4.702;2022-12-29T09:01:12;6.53;;;1.40;;
30247;SDS011;17063;50.892;4.702;2022-12-29T09:03:39;10.17;;;1.60;;
30247;SDS011;17063;50.892;4.702;2022-12-29T09:06:26;11.87;;;1.70;;
30247;SDS011;17063;50.892;4.702;2022-12-29T09:08:53;5.63;;;1.30;;
30247;SDS011;17063;50.892;4.702;2022-12-29T09:11:22;12.40;;;1.87;;
30247;SDS011;17063;50.892;4.702;2022-12-29T09:13:50;7.93;;;1.37;;
30247;SDS011;17063;50.892;4.702;2022-12-29T09:16:21;8.27;;;1.50;;
30247;SDS011;17063;50.892;4.702;2022-12-29T09:18:49;6.10;;;1.67;;
30247;SDS011;17063;50.892;4.702;2022-12-29T09:21:20;10.17;;;2.07;;
30247;SDS011;17063;50.892;4.702;2022-12-29T09:23:48;8.03;;;1.40;;
30247;SDS011;17063;50.892;4.702;2022-12-29T09:26:15;6.33;;;1.43;;
30247;SDS011;17063;50.892;4.702;2022-12-29T09:28:42;11.77;;;2.50;;
30247;SDS011;17063;50.892;4.702;2022-12-29T09:31:12;11.43;;;1.70;;
30247;SDS011;17063;50.892;4.702;2022-12-29T09:33:39;8.60;;;1.70;;
30247;SDS011;17063;50.892;4.702;2022-12-29T09:36:08;9.77;;;1.83;;
30247;SDS011;17063;50.892;4.702;2022-12-29T09:38:35;9.40;;;1.73;;
30247;SDS011;17063;50.892;4.702;2022-12-29T09:41:07;11.10;;;1.80;;
30247;SDS011;17063;50.892;4.702;2022-12-29T09:47:04;11.07;;;1.67;;
30247;SDS011;17063;50.892;4.702;2022-12-29T09:52:14;7.43;;;1.60;;
30247;SDS011;17063;50.892;4.702;2022-12-29T09:57:26;7.03;;;1.30;;
30247;SDS011;17063;50.892;4.702;2022-12-29T09:59:59;10.37;;;1.67;;
30247;SDS011;17063;50.892;4.702;2022-12-29T10:02:46;10.53;;;2.03;;
30247;SDS011;17063;50.892;4.702;2022-12-29T10:05:24;8.80;;;2.23;;
30247;SDS011;17063;50.892;4.702;2022-12-29T10:10:54;10.40;;;1.50;;
30247;SDS011;17063;50.892;4.702;2022-12-29T10:13:26;9.30;;;1.70;;
30247;SDS011;17063;50.892;4.702;2022-12-29T10:25:17;12.07;;;2.00;;
30247;SDS011;17063;50.892;4.702;2022-12-29T10:27:49;4.77;;;1.30;;
30247;SDS011;17063;50.892;4.702;2022-12-29T10:30:16;15.33;;;1.80;;
30247;SDS011;17063;50.892;4.702;2022-12-29T10:32:45;10.43;;;1.90;;
30247;SDS011;17063;50.892;4.702;2022-12-29T10:35:24;13.50;;;1.70;;
30247;SDS011;17063;50.892;4.702;2022-12-29T10:40:26;13.20;;;1.93;;
30247;SDS011;17063;50.892;4.702;2022-12-29T10:42:57;7.97;;;2.20;;
30247;SDS011;17063;50.892;4.702;2022-12-29T10:45:29;10.10;;;1.60;;
30247;SDS011;17063;50.892;4.702;2022-12-29T10:48:01;13.07;;;1.50;;
30247;SDS011;17063;50.892;4.702;2022-12-29T10:50:30;8.40;;;1.90;;
30247;SDS011;17063;50.892;4.702;2022-12-29T10:53:04;8.73;;;1.77;;
30247;SDS011;17063;50.892;4.702;2022-12-29T10:55:37;6.63;;;1.70;;
30247;SDS011;17063;50.892;4.702;2022-12-29T10:58:05;7.97;;;1.80;;
30247;SDS011;17063;50.892;4.702;2022-12-29T11:00:33;8.57;;;1.40;;
30247;SDS011;17063;50.892;4.702;2022-12-29T11:06:11;11.57;;;1.83;;
30247;SDS011;17063;50.892;4.702;2022-12-29T11:08:41;8.10;;;1.80;;
30247;SDS011;17063;50.892;4.702;2022-12-29T11:11:14;11.27;;;1.83;;
30247;SDS011;17063;50.892;4.702;2022-12-29T11:13:57;13.77;;;2.13;;
30247;SDS011;17063;50.892;4.702;2022-12-29T11:16:32;13.13;;;1.93;;
30247;SDS011;17063;50.892;4.702;2022-12-29T11:19:00;8.90;;;1.90;;
30247;SDS011;17063;50.892;4.702;2022-12-29T11:21:37;7.70;;;1.60;;
30247;SDS011;17063;50.892;4.702;2022-12-29T11:24:25;8.70;;;2.10;;
30247;SDS011;17063;50.892;4.702;2022-12-29T11:26:54;12.10;;;1.97;;
30247;SDS011;17063;50.892;4.702;2022-12-29T11:29:28;7.47;;;1.60;;
30247;SDS011;17063;50.892;4.702;2022-12-29T11:31:57;11.00;;;1.73;;
30247;SDS011;17063;50.892;4.702;2022-12-29T11:34:35;9.87;;;2.57;;
30247;SDS011;17063;50.892;4.702;2022-12-29T11:37:06;10.43;;;1.67;;
30247;SDS011;17063;50.892;4.702;2022-12-29T11:39:44;8.97;;;2.03;;
30247;SDS011;17063;50.892;4.702;2022-12-29T11:42:18;12.60;;;1.57;;
30247;SDS011;17063;50.892;4.702;2022-12-29T11:44:47;10.50;;;1.60;;
30247;SDS011;17063;50.892;4.702;2022-12-29T11:47:49;10.80;;;1.67;;
30247;SDS011;17063;50.892;4.702;2022-12-29T11:50:22;5.53;;;1.47;;
30247;SDS011;17063;50.892;4.702;2022-12-29T11:53:15;11.27;;;1.80;;
30247;SDS011;17063;50.892;4.702;2022-12-29T11:55:50;12.70;;;2.33;;
30247;SDS011;17063;50.892;4.702;2022-12-29T11:58:29;11.03;;;1.93;;
30247;SDS011;17063;50.892;4.702;2022-12-29T12:01:00;11.87;;;1.67;;
30247;SDS011;17063;50.892;4.702;2022-12-29T12:03:56;9.50;;;1.80;;
30247;SDS011;17063;50.892;4.702;2022-12-29T12:06:28;7.30;;;1.80;;
30247;SDS011;17063;50.892;4.702;2022-12-29T12:08:57;10.00;;;1.77;;
30247;SDS011;17063;50.892;4.702;2022-12-29T12:11:37;7.17;;;1.70;;
30247;SDS011;17063;50.892;4.702;2022-12-29T12:17:04;13.47;;;1.70;;
30247;SDS011;17063;50.892;4.702;2022-12-29T12:22:17;9.20;;;1.60;;
30247;SDS011;17063;50.892;4.702;2022-12-29T12:25:11;7.37;;;1.93;;
30247;SDS011;17063;50.892;4.702;2022-12-29T12:27:44;9.73;;;1.40;;
30247;SDS011;17063;50.892;4.702;2022-12-29T12:30:28;7.33;;;1.73;;
30247;SDS011;17063;50.892;4.702;2022-12-29T12:33:03;7.10;;;1.60;;
30247;SDS011;17063;50.892;4.702;2022-12-29T12:41:13;8.10;;;1.47;;
30247;SDS011;17063;50.892;4.702;2022-12-29T12:44:04;5.63;;;1.40;;
30247;SDS011;17063;50.892;4.702;2022-12-29T12:46:46;9.93;;;2.20;;
30247;SDS011;17063;50.892;4.702;2022-12-29T12:49:42;6.73;;;1.50;;
30247;SDS011;17063;50.892;4.702;2022-12-29T12:57:46;10.37;;;1.77;;
30247;SDS011;17063;50.892;4.702;2022-12-29T13:00:16;5.97;;;1.63;;
30247;SDS011;17063;50.892;4.702;2022-12-29T13:05:44;5.53;;;1.40;;
30247;SDS011;17063;50.892;4.702;2022-12-29T13:14:37;7.47;;;1.87;;
30247;SDS011;17063;50.892;4.702;2022-12-29T13:16:48;10.43;;;1.40;;
30247;SDS011;17063;50.892;4.702;2022-12-29T13:22:13;7.27;;;1.30;;
30247;SDS011;17063;50.892;4.702;2022-12-29T13:30:12;8.67;;;1.93;;
30247;SDS011;17063;50.892;4.702;2022-12-29T13:38:20;13.47;;;1.80;;
30247;SDS011;17063;50.892;4.702;2022-12-29T13:40:59;12.97;;;3.00;;
30247;SDS011;17063;50.892;4.702;2022-12-29T13:43:29;4.57;;;1.63;;
30247;SDS011;17063;50.892;4.702;2022-12-29T13:46:00;9.63;;;1.50;;
30247;SDS011;17063;50.892;4.702;2022-12-29T13:49:06;11.23;;;1.37;;
30247;SDS011;17063;50.892;4.702;2022-12-29T13:51:26;10.73;;;1.97;;
30247;SDS011;17063;50.892;4.702;2022-12-29T13:56:39;9.87;;;2.50;;
30247;SDS011;17063;50.892;4.702;2022-12-29T14:01:49;11.33;;;2.20;;
30247;SDS011;17063;50.892;4.702;2022-12-29T14:04:23;10.07;;;2.10;;
30247;SDS011;17063;50.892;4.702;2022-12-29T14:07:04;11.37;;;2.10;;
30247;SDS011;17063;50.892;4.702;2022-12-29T14:12:27;9.47;;;1.97;;
30247;SDS011;17063;50.892;4.702;2022-12-29T14:17:42;13.37;;;2.07;;
30247;SDS011;17063;50.892;4.702;2022-12-29T14:20:16;9.30;;;1.73;;
30247;SDS011;17063;50.892;4.702;2022-12-29T14:22:55;7.50;;;1.60;;
30247;SDS011;17063;50.892;4.702;2022-12-29T14:31:05;14.93;;;2.03;;
30247;SDS011;17063;50.892;4.702;2022-12-29T14:33:41;9.97;;;2.23;;
30247;SDS011;17063;50.892;4.702;2022-12-29T14:36:40;10.03;;;1.87;;
30247;SDS011;17063;50.892;4.702;2022-12-29T14:44:48;10.37;;;1.80;;
30247;SDS011;17063;50.892;4.702;2022-12-29T14:47:33;10.57;;;2.40;;
30247;SDS011;17063;50.892;4.702;2022-12-29T14:50:06;17.73;;;2.30;;
30247;SDS011;17063;50.892;4.702;2022-12-29T14:52:54;8.17;;;1.90;;
30247;SDS011;17063;50.892;4.702;2022-12-29T15:04:47;8.17;;;1.90;;
30247;SDS011;17063;50.892;4.702;2022-12-29T15:06:58;8.03;;;2.00;;
30247;SDS011;17063;50.892;4.702;2022-12-29T15:09:30;10.83;;;2.07;;
30247;SDS011;17063;50.892;4.702;2022-12-29T15:14:51;13.00;;;2.53;;
30247;SDS011;17063;50.892;4.702;2022-12-29T15:17:30;8.40;;;1.67;;
30247;SDS011;17063;50.892;4.702;2022-12-29T15:20:00;13.33;;;2.40;;
30247;SDS011;17063;50.892;4.702;2022-12-29T15:22:47;19.67;;;2.00;;
30247;SDS011;17063;50.892;4.702;2022-12-29T15:25:18;11.50;;;2.10;;
30247;SDS011;17063;50.892;4.702;2022-12-29T15:27:49;7.53;;;1.70;;
30247;SDS011;17063;50.892;4.702;2022-12-29T15:30:20;7.83;;;1.80;;
30247;SDS011;17063;50.892;4.702;2022-12-29T15:32:49;13.30;;;2.73;;
30247;SDS011;17063;50.892;4.702;2022-12-29T15:35:33;5.63;;;1.70;;
30247;SDS011;17063;50.892;4.702;2022-12-29T15:38:12;5.70;;;1.40;;
30247;SDS011;17063;50.892;4.702;2022-12-29T15:40:40;11.30;;;2.20;;
30247;SDS011;17063;50.892;4.702;2022-12-29T15:43:14;6.37;;;1.40;;
30247;SDS011;17063;50.892;4.702;2022-12-29T15:45:50;6.03;;;1.60;;
30247;SDS011;17063;50.892;4.702;2022-12-29T15:48:18;8.50;;;1.23;;
30247;SDS011;17063;50.892;4.702;2022-12-29T15:50:47;10.13;;;1.40;;
30247;SDS011;17063;50.892;4.702;2022-12-29T15:53:21;5.37;;;1.53;;
30247;SDS011;17063;50.892;4.702;2022-12-29T15:56:00;5.13;;;1.30;;
30247;SDS011;17063;50.892;4.702;2022-12-29T15:58:48;5.10;;;0.93;;
30247;SDS011;17063;50.892;4.702;2022-12-29T16:01:18;3.33;;;1.20;;
30247;SDS011;17063;50.892;4.702;2022-12-29T16:03:45;4.17;;;1.13;;
30247;SDS011;17063;50.892;4.702;2022-12-29T16:06:26;6.23;;;1.33;;
30247;SDS011;17063;50.892;4.702;2022-12-29T16:08:56;5.57;;;1.47;;
30247;SDS011;17063;50.892;4.702;2022-12-29T16:11:27;6.40;;;1.30;;
30247;SDS011;17063;50.892;4.702;2022-12-29T16:14:13;4.33;;;1.40;;
30247;SDS011;17063;50.892;4.702;2022-12-29T16:16:43;7.17;;;1.77;;
30247;SDS011;17063;50.892;4.702;2022-12-29T16:21:41;6.87;;;2.00;;
30247;SDS011;17063;50.892;4.702;2022-12-29T16:24:12;12.00;;;2.00;;
30247;SDS011;17063;50.892;4.702;2022-12-29T16:27:02;7.83;;;1.67;;
30247;SDS011;17063;50.892;4.702;2022-12-29T16:29:33;7.50;;;1.60;;
30247;SDS011;17063;50.892;4.702;2022-12-29T16:32:01;6.17;;;1.53;;
30247;SDS011;17063;50.892;4.702;2022-12-29T16:34:33;11.57;;;1.70;;
30247;SDS011;17063;50.892;4.702;2022-12-29T16:42:49;10.73;;;1.83;;
30247;SDS011;17063;50.892;4.702;2022-12-29T16:47:45;11.80;;;2.10;;
30247;SDS011;17063;50.892;4.702;2022-12-29T16:50:17;13.67;;;2.30;;
30247;SDS011;17063;50.892;4.702;2022-12-29T16:52:54;11.40;;;2.60;;
30247;SDS011;17063;50.892;4.702;2022-12-29T16:55:22;10.07;;;2.47;;
30247;SDS011;17063;50.892;4.702;2022-12-29T16:57:50;13.77;;;3.83;;
30247;SDS011;17063;50.892;4.702;2022-12-29T17:00:21;15.77;;;2.63;;
30247;SDS011;17063;50.892;4.702;2022-12-29T17:02:49;12.13;;;2.67;;
30247;SDS011;17063;50.892;4.702;2022-12-29T17:05:19;12.07;;;2.30;;
30247;SDS011;17063;50.892;4.702;2022-12-29T17:07:46;16.00;;;2.57;;
30247;SDS011;17063;50.892;4.702;2022-12-29T17:10:14;16.47;;;2.87;;
30247;SDS011;17063;50.892;4.702;2022-12-29T17:12:46;10.17;;;2.40;;
30247;SDS011;17063;50.892;4.702;2022-12-29T17:15:21;20.37;;;2.60;;
30247;SDS011;17063;50.892;4.702;2022-12-29T17:17:53;12.73;;;2.77;;
30247;SDS011;17063;50.892;4.702;2022-12-29T17:20:29;15.37;;;2.70;;
30247;SDS011;17063;50.892;4.702;2022-12-29T17:22:57;10.10;;;2.30;;
30247;SDS011;17063;50.892;4.702;2022-12-29T17:25:32;14.93;;;2.40;;
30247;SDS011;17063;50.892;4.702;2022-12-29T17:28:05;24.13;;;2.63;;
30247;SDS011;17063;50.892;4.702;2022-12-29T17:31:02;13.73;;;1.90;;
30247;SDS011;17063;50.892;4.702;2022-12-29T17:33:36;16.43;;;2.20;;
30247;SDS011;17063;50.892;4.702;2022-12-29T17:36:04;9.40;;;1.83;;
30247;SDS011;17063;50.892;4.702;2022-12-29T17:38:33;8.33;;;2.13;;
30247;SDS011;17063;50.892;4.702;2022-12-29T17:41:01;16.80;;;2.50;;